sensor_id;sensor_type;location;lat;lon;timestamp;P1;durP1;ratioP1;P2;durP2;ratioP2
23179;SDS011;11758;45.756;11.432;2023-07-31T00:00:49;2.72;;;2.60;;
23179;SDS011;11758;45.756;11.432;2023-07-31T00:03:15;3.20;;;3.10;;
23179;SDS011;11758;45.756;11.432;2023-07-31T00:05:42;2.90;;;2.80;;
23179;SDS011;11758;45.756;11.432;2023-07-31T00:08:08;3.10;;;2.90;;
23179;SDS011;11758;45.756;11.432;2023-07-31T00:10:34;5.22;;;3.03;;
23179;SDS011;11758;45.756;11.432;2023-07-31T00:13:00;3.13;;;2.90;;
23179;SDS011;11758;45.756;11.432;2023-07-31T00:15:26;2.70;;;2.60;;
23179;SDS011;11758;45.756;11.432;2023-07-31T00:17:52;3.08;;;2.88;;
23179;SDS011;11758;45.756;11.432;2023-07-31T00:20:18;5.90;;;3.20;;
23179;SDS011;11758;45.756;11.432;2023-07-31T00:22:44;4.72;;;2.65;;
23179;SDS011;11758;45.756;11.432;2023-07-31T00:25:10;3.67;;;3.10;;
23179;SDS011;11758;45.756;11.432;2023-07-31T00:27:37;2.70;;;2.67;;
23179;SDS011;11758;45.756;11.432;2023-07-31T00:30:03;2.72;;;2.53;;
23179;SDS011;11758;45.756;11.432;2023-07-31T00:32:29;4.47;;;2.90;;
23179;SDS011;11758;45.756;11.432;2023-07-31T00:34:55;3.00;;;2.85;;
23179;SDS011;11758;45.756;11.432;2023-07-31T00:37:21;3.30;;;3.10;;
23179;SDS011;11758;45.756;11.432;2023-07-31T00:39:48;2.80;;;2.70;;
23179;SDS011;11758;45.756;11.432;2023-07-31T00:42:14;3.72;;;2.80;;
23179;SDS011;11758;45.756;11.432;2023-07-31T00:44:40;3.17;;;2.92;;
23179;SDS011;11758;45.756;11.432;2023-07-31T00:47:06;5.97;;;2.72;;
23179;SDS011;11758;45.756;11.432;2023-07-31T00:49:32;2.95;;;2.75;;
23179;SDS011;11758;45.756;11.432;2023-07-31T00:51:58;2.83;;;2.70;;
23179;SDS011;11758;45.756;11.432;2023-07-31T00:54:25;2.90;;;2.70;;
23179;SDS011;11758;45.756;11.432;2023-07-31T00:56:52;3.10;;;2.95;;
23179;SDS011;11758;45.756;11.432;2023-07-31T00:59:18;3.88;;;2.67;;
23179;SDS011;11758;45.756;11.432;2023-07-31T01:01:45;3.53;;;3.13;;
23179;SDS011;11758;45.756;11.432;2023-07-31T01:04:11;4.60;;;2.95;;
23179;SDS011;11758;45.756;11.432;2023-07-31T01:11:52;3.20;;;2.88;;
23179;SDS011;11758;45.756;11.432;2023-07-31T01:14:18;4.25;;;2.75;;
23179;SDS011;11758;45.756;11.432;2023-07-31T01:16:44;3.15;;;2.92;;
23179;SDS011;11758;45.756;11.432;2023-07-31T01:19:10;3.30;;;3.10;;
23179;SDS011;11758;45.756;11.432;2023-07-31T01:26:36;3.00;;;2.90;;
23179;SDS011;11758;45.756;11.432;2023-07-31T01:31:32;3.42;;;3.10;;
23179;SDS011;11758;45.756;11.432;2023-07-31T01:34:02;3.17;;;3.00;;
23179;SDS011;11758;45.756;11.432;2023-07-31T01:36:28;3.60;;;3.40;;
23179;SDS011;11758;45.756;11.432;2023-07-31T01:38:59;4.28;;;3.20;;
23179;SDS011;11758;45.756;11.432;2023-07-31T01:41:26;3.60;;;3.45;;
23179;SDS011;11758;45.756;11.432;2023-07-31T01:43:52;3.70;;;3.50;;
23179;SDS011;11758;45.756;11.432;2023-07-31T01:46:18;3.97;;;3.40;;
23179;SDS011;11758;45.756;11.432;2023-07-31T01:48:44;3.47;;;3.33;;
23179;SDS011;11758;45.756;11.432;2023-07-31T01:51:10;3.72;;;3.58;;
23179;SDS011;11758;45.756;11.432;2023-07-31T01:53:36;3.25;;;3.10;;
23179;SDS011;11758;45.756;11.432;2023-07-31T01:56:02;3.78;;;3.47;;
23179;SDS011;11758;45.756;11.432;2023-07-31T01:58:29;4.43;;;4.22;;
23179;SDS011;11758;45.756;11.432;2023-07-31T02:00:55;5.78;;;5.38;;
23179;SDS011;11758;45.756;11.432;2023-07-31T02:03:21;5.18;;;4.88;;
23179;SDS011;11758;45.756;11.432;2023-07-31T02:05:47;5.40;;;5.10;;
23179;SDS011;11758;45.756;11.432;2023-07-31T02:08:14;6.28;;;5.88;;
23179;SDS011;11758;45.756;11.432;2023-07-31T02:10:40;6.88;;;6.30;;
23179;SDS011;11758;45.756;11.432;2023-07-31T02:13:07;5.60;;;5.20;;
23179;SDS011;11758;45.756;11.432;2023-07-31T02:15:33;5.97;;;5.55;;
23179;SDS011;11758;45.756;11.432;2023-07-31T02:17:59;6.72;;;5.82;;
23179;SDS011;11758;45.756;11.432;2023-07-31T02:20:25;5.55;;;5.18;;
23179;SDS011;11758;45.756;11.432;2023-07-31T02:22:51;6.65;;;6.15;;
23179;SDS011;11758;45.756;11.432;2023-07-31T02:25:17;6.20;;;5.70;;
23179;SDS011;11758;45.756;11.432;2023-07-31T02:27:43;6.20;;;5.70;;
23179;SDS011;11758;45.756;11.432;2023-07-31T02:30:10;6.05;;;5.55;;
23179;SDS011;11758;45.756;11.432;2023-07-31T02:32:36;5.55;;;5.25;;
23179;SDS011;11758;45.756;11.432;2023-07-31T02:35:02;6.10;;;5.70;;
23179;SDS011;11758;45.756;11.432;2023-07-31T02:37:28;5.32;;;5.03;;
23179;SDS011;11758;45.756;11.432;2023-07-31T02:39:54;5.65;;;5.22;;
23179;SDS011;11758;45.756;11.432;2023-07-31T02:42:21;5.60;;;5.20;;
23179;SDS011;11758;45.756;11.432;2023-07-31T02:44:47;5.18;;;4.88;;
23179;SDS011;11758;45.756;11.432;2023-07-31T02:47:13;6.20;;;5.10;;
23179;SDS011;11758;45.756;11.432;2023-07-31T02:49:39;4.93;;;4.60;;
23179;SDS011;11758;45.756;11.432;2023-07-31T02:52:06;5.30;;;4.90;;
23179;SDS011;11758;45.756;11.432;2023-07-31T02:54:32;4.93;;;4.60;;
23179;SDS011;11758;45.756;11.432;2023-07-31T02:56:58;5.25;;;4.75;;
23179;SDS011;11758;45.756;11.432;2023-07-31T02:59:24;5.15;;;4.85;;
23179;SDS011;11758;45.756;11.432;2023-07-31T03:01:50;5.55;;;5.05;;
23179;SDS011;11758;45.756;11.432;2023-07-31T03:04:16;6.15;;;4.60;;
23179;SDS011;11758;45.756;11.432;2023-07-31T03:06:42;5.20;;;4.88;;
23179;SDS011;11758;45.756;11.432;2023-07-31T03:09:08;5.22;;;4.80;;
23179;SDS011;11758;45.756;11.432;2023-07-31T03:11:34;7.68;;;5.03;;
23179;SDS011;11758;45.756;11.432;2023-07-31T03:14:00;5.93;;;4.80;;
23179;SDS011;11758;45.756;11.432;2023-07-31T03:16:27;4.88;;;4.53;;
23179;SDS011;11758;45.756;11.432;2023-07-31T03:18:53;5.60;;;5.18;;
23179;SDS011;11758;45.756;11.432;2023-07-31T03:21:19;5.32;;;5.03;;
23179;SDS011;11758;45.756;11.432;2023-07-31T03:23:46;5.40;;;5.00;;
23179;SDS011;11758;45.756;11.432;2023-07-31T03:26:12;6.70;;;5.10;;
23179;SDS011;11758;45.756;11.432;2023-07-31T03:28:38;5.47;;;5.10;;
23179;SDS011;11758;45.756;11.432;2023-07-31T03:31:04;7.13;;;5.20;;
23179;SDS011;11758;45.756;11.432;2023-07-31T03:33:30;6.13;;;5.60;;
23179;SDS011;11758;45.756;11.432;2023-07-31T03:35:57;4.93;;;4.72;;
23179;SDS011;11758;45.756;11.432;2023-07-31T03:38:23;5.25;;;4.95;;
23179;SDS011;11758;45.756;11.432;2023-07-31T03:40:49;6.40;;;5.93;;
23179;SDS011;11758;45.756;11.432;2023-07-31T03:43:16;5.57;;;5.28;;
23179;SDS011;11758;45.756;11.432;2023-07-31T03:45:43;4.90;;;4.60;;
23179;SDS011;11758;45.756;11.432;2023-07-31T03:48:10;4.63;;;4.32;;
23179;SDS011;11758;45.756;11.432;2023-07-31T03:50:36;5.15;;;4.75;;
23179;SDS011;11758;45.756;11.432;2023-07-31T03:53:02;5.07;;;4.78;;
23179;SDS011;11758;45.756;11.432;2023-07-31T03:55:28;4.40;;;4.20;;
23179;SDS011;11758;45.756;11.432;2023-07-31T03:57:55;4.60;;;4.40;;
23179;SDS011;11758;45.756;11.432;2023-07-31T04:00:21;4.40;;;4.20;;
23179;SDS011;11758;45.756;11.432;2023-07-31T04:02:52;4.50;;;4.30;;
23179;SDS011;11758;45.756;11.432;2023-07-31T04:05:20;4.63;;;4.28;;
23179;SDS011;11758;45.756;11.432;2023-07-31T04:07:46;4.65;;;4.40;;
23179;SDS011;11758;45.756;11.432;2023-07-31T04:10:12;4.13;;;3.92;;
23179;SDS011;11758;45.756;11.432;2023-07-31T04:12:38;4.60;;;4.30;;
23179;SDS011;11758;45.756;11.432;2023-07-31T04:15:05;4.68;;;4.30;;
23179;SDS011;11758;45.756;11.432;2023-07-31T04:17:31;4.57;;;4.32;;
23179;SDS011;11758;45.756;11.432;2023-07-31T04:19:57;4.15;;;3.95;;
23179;SDS011;11758;45.756;11.432;2023-07-31T04:22:23;6.65;;;4.60;;
23179;SDS011;11758;45.756;11.432;2023-07-31T04:24:50;4.47;;;4.20;;
23179;SDS011;11758;45.756;11.432;2023-07-31T04:27:16;4.72;;;4.43;;
23179;SDS011;11758;45.756;11.432;2023-07-31T04:29:42;4.63;;;4.22;;
23179;SDS011;11758;45.756;11.432;2023-07-31T04:32:11;4.00;;;3.80;;
23179;SDS011;11758;45.756;11.432;2023-07-31T04:34:37;3.15;;;3.05;;
23179;SDS011;11758;45.756;11.432;2023-07-31T04:37:03;4.75;;;3.80;;
23179;SDS011;11758;45.756;11.432;2023-07-31T04:39:29;4.43;;;4.13;;
23179;SDS011;11758;45.756;11.432;2023-07-31T04:41:55;4.13;;;3.83;;
23179;SDS011;11758;45.756;11.432;2023-07-31T04:44:21;4.40;;;4.10;;
23179;SDS011;11758;45.756;11.432;2023-07-31T04:46:47;4.75;;;4.38;;
23179;SDS011;11758;45.756;11.432;2023-07-31T04:49:13;4.93;;;4.57;;
23179;SDS011;11758;45.756;11.432;2023-07-31T04:51:39;4.72;;;4.40;;
23179;SDS011;11758;45.756;11.432;2023-07-31T04:54:06;5.07;;;4.78;;
23179;SDS011;11758;45.756;11.432;2023-07-31T04:56:32;5.18;;;4.88;;
23179;SDS011;11758;45.756;11.432;2023-07-31T04:58:58;4.20;;;4.00;;
23179;SDS011;11758;45.756;11.432;2023-07-31T05:01:24;4.32;;;4.13;;
23179;SDS011;11758;45.756;11.432;2023-07-31T05:03:50;4.07;;;3.90;;
23179;SDS011;11758;45.756;11.432;2023-07-31T05:06:16;4.05;;;3.85;;
23179;SDS011;11758;45.756;11.432;2023-07-31T05:08:43;4.70;;;4.30;;
23179;SDS011;11758;45.756;11.432;2023-07-31T05:11:09;3.58;;;3.47;;
23179;SDS011;11758;45.756;11.432;2023-07-31T05:13:35;4.07;;;3.78;;
23179;SDS011;11758;45.756;11.432;2023-07-31T05:16:01;3.83;;;3.63;;
23179;SDS011;11758;45.756;11.432;2023-07-31T05:18:27;3.53;;;3.42;;
23179;SDS011;11758;45.756;11.432;2023-07-31T05:20:53;3.58;;;3.47;;
23179;SDS011;11758;45.756;11.432;2023-07-31T05:23:19;3.90;;;3.63;;
23179;SDS011;11758;45.756;11.432;2023-07-31T05:25:45;6.18;;;3.00;;
23179;SDS011;11758;45.756;11.432;2023-07-31T05:28:12;3.45;;;3.33;;
23179;SDS011;11758;45.756;11.432;2023-07-31T05:30:38;3.45;;;3.35;;
23179;SDS011;11758;45.756;11.432;2023-07-31T05:33:04;3.28;;;2.80;;
23179;SDS011;11758;45.756;11.432;2023-07-31T05:35:30;3.25;;;3.15;;
23179;SDS011;11758;45.756;11.432;2023-07-31T05:37:56;3.95;;;3.75;;
23179;SDS011;11758;45.756;11.432;2023-07-31T05:40:22;4.18;;;3.72;;
23179;SDS011;11758;45.756;11.432;2023-07-31T05:42:49;8.73;;;3.63;;
23179;SDS011;11758;45.756;11.432;2023-07-31T05:45:15;4.00;;;3.80;;
23179;SDS011;11758;45.756;11.432;2023-07-31T05:47:41;3.42;;;3.22;;
23179;SDS011;11758;45.756;11.432;2023-07-31T05:50:07;3.95;;;3.67;;
23179;SDS011;11758;45.756;11.432;2023-07-31T05:52:33;6.72;;;3.78;;
23179;SDS011;11758;45.756;11.432;2023-07-31T05:54:59;3.30;;;3.20;;
23179;SDS011;11758;45.756;11.432;2023-07-31T05:57:26;3.40;;;3.20;;
23179;SDS011;11758;45.756;11.432;2023-07-31T05:59:52;2.95;;;2.75;;
23179;SDS011;11758;45.756;11.432;2023-07-31T06:02:18;3.40;;;3.20;;
23179;SDS011;11758;45.756;11.432;2023-07-31T06:04:44;3.08;;;2.97;;
23179;SDS011;11758;45.756;11.432;2023-07-31T06:07:11;3.97;;;3.40;;
23179;SDS011;11758;45.756;11.432;2023-07-31T06:09:37;3.40;;;3.20;;
23179;SDS011;11758;45.756;11.432;2023-07-31T06:12:03;4.45;;;3.25;;
23179;SDS011;11758;45.756;11.432;2023-07-31T06:14:29;4.75;;;4.22;;
23179;SDS011;11758;45.756;11.432;2023-07-31T06:16:55;5.47;;;5.07;;
23179;SDS011;11758;45.756;11.432;2023-07-31T06:19:21;3.70;;;3.50;;
23179;SDS011;11758;45.756;11.432;2023-07-31T06:21:48;4.18;;;3.88;;
23179;SDS011;11758;45.756;11.432;2023-07-31T06:24:14;3.90;;;3.70;;
23179;SDS011;11758;45.756;11.432;2023-07-31T06:26:44;4.43;;;4.10;;
23179;SDS011;11758;45.756;11.432;2023-07-31T06:29:10;4.72;;;4.40;;
23179;SDS011;11758;45.756;11.432;2023-07-31T06:31:36;4.18;;;3.90;;
23179;SDS011;11758;45.756;11.432;2023-07-31T06:34:02;5.50;;;3.92;;
23179;SDS011;11758;45.756;11.432;2023-07-31T06:36:28;4.88;;;4.40;;
23179;SDS011;11758;45.756;11.432;2023-07-31T06:38:54;4.18;;;3.83;;
23179;SDS011;11758;45.756;11.432;2023-07-31T06:41:20;3.60;;;3.30;;
23179;SDS011;11758;45.756;11.432;2023-07-31T06:43:46;3.75;;;3.60;;
23179;SDS011;11758;45.756;11.432;2023-07-31T06:46:12;4.60;;;2.97;;
23179;SDS011;11758;45.756;11.432;2023-07-31T06:48:39;3.25;;;3.05;;
23179;SDS011;11758;45.756;11.432;2023-07-31T06:51:05;2.53;;;2.42;;
23179;SDS011;11758;45.756;11.432;2023-07-31T06:53:31;2.80;;;2.70;;
23179;SDS011;11758;45.756;11.432;2023-07-31T06:55:57;2.75;;;2.65;;
23179;SDS011;11758;45.756;11.432;2023-07-31T06:58:23;2.60;;;2.50;;
23179;SDS011;11758;45.756;11.432;2023-07-31T07:00:49;2.67;;;2.58;;
23179;SDS011;11758;45.756;11.432;2023-07-31T07:03:17;2.40;;;2.40;;
23179;SDS011;11758;45.756;11.432;2023-07-31T07:05:44;2.15;;;2.15;;
23179;SDS011;11758;45.756;11.432;2023-07-31T07:08:10;3.58;;;2.60;;
23179;SDS011;11758;45.756;11.432;2023-07-31T07:10:36;2.60;;;2.45;;
23179;SDS011;11758;45.756;11.432;2023-07-31T07:13:02;2.40;;;2.30;;
23179;SDS011;11758;45.756;11.432;2023-07-31T07:15:29;2.30;;;2.20;;
23179;SDS011;11758;45.756;11.432;2023-07-31T07:17:55;2.40;;;2.30;;
23179;SDS011;11758;45.756;11.432;2023-07-31T07:20:22;2.53;;;2.42;;
23179;SDS011;11758;45.756;11.432;2023-07-31T07:22:48;10.18;;;2.67;;
23179;SDS011;11758;45.756;11.432;2023-07-31T07:25:14;2.53;;;2.42;;
23179;SDS011;11758;45.756;11.432;2023-07-31T07:27:40;3.10;;;2.05;;
23179;SDS011;11758;45.756;11.432;2023-07-31T07:30:07;2.20;;;2.15;;
23179;SDS011;11758;45.756;11.432;2023-07-31T07:32:33;2.47;;;2.28;;
23179;SDS011;11758;45.756;11.432;2023-07-31T07:35:00;5.35;;;2.60;;
23179;SDS011;11758;45.756;11.432;2023-07-31T07:37:26;1.90;;;1.90;;
23179;SDS011;11758;45.756;11.432;2023-07-31T07:39:52;2.30;;;2.20;;
23179;SDS011;11758;45.756;11.432;2023-07-31T07:42:18;2.53;;;2.42;;
23179;SDS011;11758;45.756;11.432;2023-07-31T07:44:44;3.10;;;2.05;;
23179;SDS011;11758;45.756;11.432;2023-07-31T07:47:10;2.55;;;2.33;;
23179;SDS011;11758;45.756;11.432;2023-07-31T07:49:37;2.80;;;2.30;;
23179;SDS011;11758;45.756;11.432;2023-07-31T07:52:03;2.25;;;2.15;;
23179;SDS011;11758;45.756;11.432;2023-07-31T07:54:29;2.83;;;2.47;;
23179;SDS011;11758;45.756;11.432;2023-07-31T07:56:56;2.55;;;2.25;;
23179;SDS011;11758;45.756;11.432;2023-07-31T07:59:22;2.70;;;2.10;;
23179;SDS011;11758;45.756;11.432;2023-07-31T08:01:48;2.15;;;2.15;;
23179;SDS011;11758;45.756;11.432;2023-07-31T08:04:14;2.50;;;2.38;;
23179;SDS011;11758;45.756;11.432;2023-07-31T08:06:40;4.45;;;2.20;;
23179;SDS011;11758;45.756;11.432;2023-07-31T08:09:06;2.08;;;2.08;;
23179;SDS011;11758;45.756;11.432;2023-07-31T08:11:34;2.10;;;2.10;;
23179;SDS011;11758;45.756;11.432;2023-07-31T08:14:00;2.47;;;2.20;;
23179;SDS011;11758;45.756;11.432;2023-07-31T08:16:26;2.00;;;1.90;;
23179;SDS011;11758;45.756;11.432;2023-07-31T08:18:52;4.80;;;2.20;;
23179;SDS011;11758;45.756;11.432;2023-07-31T08:21:18;2.65;;;2.50;;
23179;SDS011;11758;45.756;11.432;2023-07-31T08:23:45;2.30;;;2.20;;
23179;SDS011;11758;45.756;11.432;2023-07-31T08:26:18;2.40;;;2.20;;
23179;SDS011;11758;45.756;11.432;2023-07-31T08:28:44;2.20;;;2.10;;
23179;SDS011;11758;45.756;11.432;2023-07-31T08:31:10;2.22;;;2.22;;
23179;SDS011;11758;45.756;11.432;2023-07-31T08:33:37;2.17;;;2.17;;
23179;SDS011;11758;45.756;11.432;2023-07-31T08:36:03;2.50;;;2.17;;
23179;SDS011;11758;45.756;11.432;2023-07-31T08:38:30;2.10;;;1.92;;
23179;SDS011;11758;45.756;11.432;2023-07-31T08:40:56;2.22;;;2.13;;
23179;SDS011;11758;45.756;11.432;2023-07-31T08:43:25;3.55;;;2.28;;
23179;SDS011;11758;45.756;11.432;2023-07-31T08:45:51;2.45;;;2.30;;
23179;SDS011;11758;45.756;11.432;2023-07-31T08:48:17;2.50;;;2.40;;
23179;SDS011;11758;45.756;11.432;2023-07-31T08:50:44;2.78;;;2.67;;
23179;SDS011;11758;45.756;11.432;2023-07-31T08:53:10;2.72;;;2.63;;
23179;SDS011;11758;45.756;11.432;2023-07-31T08:55:37;2.58;;;2.38;;
23179;SDS011;11758;45.756;11.432;2023-07-31T08:58:04;3.95;;;2.38;;
23179;SDS011;11758;45.756;11.432;2023-07-31T09:00:33;2.20;;;2.20;;
23179;SDS011;11758;45.756;11.432;2023-07-31T09:02:59;2.05;;;2.03;;
23179;SDS011;11758;45.756;11.432;2023-07-31T09:05:28;2.60;;;2.40;;
23179;SDS011;11758;45.756;11.432;2023-07-31T09:07:54;2.50;;;2.30;;
23179;SDS011;11758;45.756;11.432;2023-07-31T09:10:21;2.20;;;2.20;;
23179;SDS011;11758;45.756;11.432;2023-07-31T09:12:47;2.40;;;2.30;;
23179;SDS011;11758;45.756;11.432;2023-07-31T09:15:14;3.42;;;2.40;;
23179;SDS011;11758;45.756;11.432;2023-07-31T09:17:40;2.38;;;2.28;;
23179;SDS011;11758;45.756;11.432;2023-07-31T09:20:13;2.33;;;2.13;;
23179;SDS011;11758;45.756;11.432;2023-07-31T09:22:40;3.00;;;2.50;;
23179;SDS011;11758;45.756;11.432;2023-07-31T09:25:22;2.20;;;2.10;;
23179;SDS011;11758;45.756;11.432;2023-07-31T09:27:53;3.28;;;2.20;;
23179;SDS011;11758;45.756;11.432;2023-07-31T09:30:19;2.85;;;2.20;;
23179;SDS011;11758;45.756;11.432;2023-07-31T09:32:46;2.40;;;2.20;;
23179;SDS011;11758;45.756;11.432;2023-07-31T09:35:14;3.95;;;2.10;;
23179;SDS011;11758;45.756;11.432;2023-07-31T09:37:40;3.15;;;2.10;;
23179;SDS011;11758;45.756;11.432;2023-07-31T09:40:06;2.08;;;1.98;;
23179;SDS011;11758;45.756;11.432;2023-07-31T09:42:32;2.35;;;2.10;;
23179;SDS011;11758;45.756;11.432;2023-07-31T09:45:06;1.92;;;1.90;;
23179;SDS011;11758;45.756;11.432;2023-07-31T09:47:36;1.92;;;1.83;;
23179;SDS011;11758;45.756;11.432;2023-07-31T09:50:05;5.22;;;2.10;;
23179;SDS011;11758;45.756;11.432;2023-07-31T09:52:34;2.08;;;1.83;;
23179;SDS011;11758;45.756;11.432;2023-07-31T09:55:00;1.60;;;1.60;;
23179;SDS011;11758;45.756;11.432;2023-07-31T09:57:26;1.80;;;1.70;;
23179;SDS011;11758;45.756;11.432;2023-07-31T09:59:53;2.00;;;1.73;;
23179;SDS011;11758;45.756;11.432;2023-07-31T10:02:20;1.77;;;1.77;;
23179;SDS011;11758;45.756;11.432;2023-07-31T10:04:47;1.30;;;1.30;;
23179;SDS011;11758;45.756;11.432;2023-07-31T10:07:16;1.60;;;1.60;;
23179;SDS011;11758;45.756;11.432;2023-07-31T10:09:43;2.75;;;1.70;;
23179;SDS011;11758;45.756;11.432;2023-07-31T10:12:10;1.42;;;1.42;;
23179;SDS011;11758;45.756;11.432;2023-07-31T10:14:38;1.75;;;1.65;;
23179;SDS011;11758;45.756;11.432;2023-07-31T10:17:04;1.85;;;1.70;;
23179;SDS011;11758;45.756;11.432;2023-07-31T10:19:31;1.55;;;1.45;;
23179;SDS011;11758;45.756;11.432;2023-07-31T10:21:58;1.48;;;1.48;;
23179;SDS011;11758;45.756;11.432;2023-07-31T10:24:24;1.85;;;1.40;;
23179;SDS011;11758;45.756;11.432;2023-07-31T10:26:51;1.50;;;1.50;;
23179;SDS011;11758;45.756;11.432;2023-07-31T10:29:18;1.55;;;1.55;;
23179;SDS011;11758;45.756;11.432;2023-07-31T10:31:45;1.58;;;1.55;;
23179;SDS011;11758;45.756;11.432;2023-07-31T10:34:12;1.88;;;1.88;;
23179;SDS011;11758;45.756;11.432;2023-07-31T10:36:39;2.45;;;2.00;;
23179;SDS011;11758;45.756;11.432;2023-07-31T10:39:05;1.88;;;1.70;;
23179;SDS011;11758;45.756;11.432;2023-07-31T10:41:51;2.10;;;1.70;;
23179;SDS011;11758;45.756;11.432;2023-07-31T10:44:17;1.50;;;1.50;;
23179;SDS011;11758;45.756;11.432;2023-07-31T10:46:45;2.28;;;2.08;;
23179;SDS011;11758;45.756;11.432;2023-07-31T10:49:12;3.25;;;1.85;;
23179;SDS011;11758;45.756;11.432;2023-07-31T10:51:47;3.40;;;1.80;;
23179;SDS011;11758;45.756;11.432;2023-07-31T10:54:13;1.90;;;1.90;;
23179;SDS011;11758;45.756;11.432;2023-07-31T10:56:40;1.40;;;1.40;;
23179;SDS011;11758;45.756;11.432;2023-07-31T10:59:10;1.70;;;1.70;;
23179;SDS011;11758;45.756;11.432;2023-07-31T11:01:53;3.40;;;1.75;;
23179;SDS011;11758;45.756;11.432;2023-07-31T11:04:25;2.00;;;2.00;;
23179;SDS011;11758;45.756;11.432;2023-07-31T11:06:55;1.83;;;1.83;;
23179;SDS011;11758;45.756;11.432;2023-07-31T11:09:22;1.77;;;1.77;;
23179;SDS011;11758;45.756;11.432;2023-07-31T11:11:48;2.78;;;1.75;;
23179;SDS011;11758;45.756;11.432;2023-07-31T11:14:16;2.00;;;2.00;;
23179;SDS011;11758;45.756;11.432;2023-07-31T11:16:43;1.80;;;1.80;;
23179;SDS011;11758;45.756;11.432;2023-07-31T11:19:09;1.70;;;1.70;;
23179;SDS011;11758;45.756;11.432;2023-07-31T11:21:35;4.45;;;2.25;;
23179;SDS011;11758;45.756;11.432;2023-07-31T11:24:02;2.58;;;1.70;;
23179;SDS011;11758;45.756;11.432;2023-07-31T11:26:29;2.20;;;2.00;;
23179;SDS011;11758;45.756;11.432;2023-07-31T11:28:55;2.55;;;1.70;;
23179;SDS011;11758;45.756;11.432;2023-07-31T11:31:22;2.47;;;2.28;;
23179;SDS011;11758;45.756;11.432;2023-07-31T11:33:48;1.90;;;1.80;;
23179;SDS011;11758;45.756;11.432;2023-07-31T11:36:18;2.03;;;1.92;;
23179;SDS011;11758;45.756;11.432;2023-07-31T11:38:44;1.90;;;1.80;;
23179;SDS011;11758;45.756;11.432;2023-07-31T11:41:13;1.58;;;1.58;;
23179;SDS011;11758;45.756;11.432;2023-07-31T11:43:39;2.60;;;2.50;;
23179;SDS011;11758;45.756;11.432;2023-07-31T11:46:05;1.77;;;1.67;;
23179;SDS011;11758;45.756;11.432;2023-07-31T11:48:33;1.58;;;1.58;;
23179;SDS011;11758;45.756;11.432;2023-07-31T11:51:01;1.75;;;1.55;;
23179;SDS011;11758;45.756;11.432;2023-07-31T11:53:38;2.00;;;1.90;;
23179;SDS011;11758;45.756;11.432;2023-07-31T11:56:06;2.20;;;1.98;;
23179;SDS011;11758;45.756;11.432;2023-07-31T11:58:34;3.13;;;1.70;;
23179;SDS011;11758;45.756;11.432;2023-07-31T12:01:00;1.80;;;1.80;;
23179;SDS011;11758;45.756;11.432;2023-07-31T12:03:27;1.60;;;1.60;;
23179;SDS011;11758;45.756;11.432;2023-07-31T12:05:53;1.95;;;1.85;;
23179;SDS011;11758;45.756;11.432;2023-07-31T12:08:20;1.90;;;1.80;;
23179;SDS011;11758;45.756;11.432;2023-07-31T12:10:47;3.28;;;2.92;;
23179;SDS011;11758;45.756;11.432;2023-07-31T12:13:22;1.90;;;1.80;;
23179;SDS011;11758;45.756;11.432;2023-07-31T12:15:49;1.85;;;1.75;;
23179;SDS011;11758;45.756;11.432;2023-07-31T12:18:19;1.98;;;1.88;;
23179;SDS011;11758;45.756;11.432;2023-07-31T12:20:47;1.80;;;1.80;;
23179;SDS011;11758;45.756;11.432;2023-07-31T12:23:17;2.10;;;1.90;;
23179;SDS011;11758;45.756;11.432;2023-07-31T12:25:44;1.70;;;1.60;;
23179;SDS011;11758;45.756;11.432;2023-07-31T12:28:10;2.58;;;1.90;;
23179;SDS011;11758;45.756;11.432;2023-07-31T12:30:37;2.13;;;1.92;;
23179;SDS011;11758;45.756;11.432;2023-07-31T12:33:04;1.80;;;1.80;;
23179;SDS011;11758;45.756;11.432;2023-07-31T12:35:38;1.90;;;1.80;;
23179;SDS011;11758;45.756;11.432;2023-07-31T12:38:04;2.15;;;2.05;;
23179;SDS011;11758;45.756;11.432;2023-07-31T12:40:30;2.05;;;1.95;;
23179;SDS011;11758;45.756;11.432;2023-07-31T12:42:56;1.80;;;1.77;;
23179;SDS011;11758;45.756;11.432;2023-07-31T12:45:23;4.47;;;1.70;;
23179;SDS011;11758;45.756;11.432;2023-07-31T12:47:49;4.18;;;1.67;;
23179;SDS011;11758;45.756;11.432;2023-07-31T12:50:15;1.80;;;1.80;;
23179;SDS011;11758;45.756;11.432;2023-07-31T12:52:41;2.25;;;1.77;;
23179;SDS011;11758;45.756;11.432;2023-07-31T12:55:07;2.13;;;1.90;;
23179;SDS011;11758;45.756;11.432;2023-07-31T12:57:36;1.77;;;1.77;;
23179;SDS011;11758;45.756;11.432;2023-07-31T13:00:02;1.88;;;1.80;;
23179;SDS011;11758;45.756;11.432;2023-07-31T13:02:28;1.85;;;1.63;;
23179;SDS011;11758;45.756;11.432;2023-07-31T13:04:55;1.75;;;1.70;;
23179;SDS011;11758;45.756;11.432;2023-07-31T13:07:21;1.88;;;1.88;;
23179;SDS011;11758;45.756;11.432;2023-07-31T13:09:48;1.70;;;1.70;;
23179;SDS011;11758;45.756;11.432;2023-07-31T13:12:14;1.70;;;1.60;;
23179;SDS011;11758;45.756;11.432;2023-07-31T13:14:40;1.88;;;1.77;;
23179;SDS011;11758;45.756;11.432;2023-07-31T13:17:06;5.75;;;1.90;;
23179;SDS011;11758;45.756;11.432;2023-07-31T13:19:33;1.67;;;1.67;;
23179;SDS011;11758;45.756;11.432;2023-07-31T13:21:59;2.10;;;1.85;;
23179;SDS011;11758;45.756;11.432;2023-07-31T13:24:25;2.00;;;1.90;;
23179;SDS011;11758;45.756;11.432;2023-07-31T13:26:51;2.20;;;2.05;;
23179;SDS011;11758;45.756;11.432;2023-07-31T13:29:17;2.00;;;1.90;;
23179;SDS011;11758;45.756;11.432;2023-07-31T13:31:43;3.53;;;2.15;;
23179;SDS011;11758;45.756;11.432;2023-07-31T13:34:09;5.75;;;2.50;;
23179;SDS011;11758;45.756;11.432;2023-07-31T13:36:36;4.20;;;2.40;;
23179;SDS011;11758;45.756;11.432;2023-07-31T13:39:02;2.10;;;2.00;;
23179;SDS011;11758;45.756;11.432;2023-07-31T13:41:28;2.28;;;2.08;;
23179;SDS011;11758;45.756;11.432;2023-07-31T13:43:54;2.65;;;1.77;;
23179;SDS011;11758;45.756;11.432;2023-07-31T13:46:20;2.00;;;1.90;;
23179;SDS011;11758;45.756;11.432;2023-07-31T13:48:46;1.88;;;1.75;;
23179;SDS011;11758;45.756;11.432;2023-07-31T13:51:12;2.60;;;1.90;;
23179;SDS011;11758;45.756;11.432;2023-07-31T13:53:38;3.10;;;1.83;;
23179;SDS011;11758;45.756;11.432;2023-07-31T13:56:05;1.83;;;1.80;;
23179;SDS011;11758;45.756;11.432;2023-07-31T13:58:31;4.88;;;1.80;;
23179;SDS011;11758;45.756;11.432;2023-07-31T14:00:58;4.35;;;1.88;;
23179;SDS011;11758;45.756;11.432;2023-07-31T14:03:24;1.70;;;1.70;;
23179;SDS011;11758;45.756;11.432;2023-07-31T14:05:51;2.17;;;2.08;;
23179;SDS011;11758;45.756;11.432;2023-07-31T14:08:18;2.13;;;1.90;;
23179;SDS011;11758;45.756;11.432;2023-07-31T14:10:44;1.60;;;1.58;;
23179;SDS011;11758;45.756;11.432;2023-07-31T14:13:10;1.90;;;1.80;;
23179;SDS011;11758;45.756;11.432;2023-07-31T14:15:36;2.60;;;2.15;;
23179;SDS011;11758;45.756;11.432;2023-07-31T14:18:02;4.55;;;1.85;;
23179;SDS011;11758;45.756;11.432;2023-07-31T14:20:29;4.82;;;1.90;;
23179;SDS011;11758;45.756;11.432;2023-07-31T14:22:55;1.75;;;1.65;;
23179;SDS011;11758;45.756;11.432;2023-07-31T14:25:22;1.88;;;1.80;;
23179;SDS011;11758;45.756;11.432;2023-07-31T14:27:48;3.88;;;1.95;;
23179;SDS011;11758;45.756;11.432;2023-07-31T14:30:14;2.08;;;1.80;;
23179;SDS011;11758;45.756;11.432;2023-07-31T14:32:40;3.13;;;2.08;;
23179;SDS011;11758;45.756;11.432;2023-07-31T14:35:06;1.98;;;1.88;;
23179;SDS011;11758;45.756;11.432;2023-07-31T14:37:39;2.08;;;1.98;;
23179;SDS011;11758;45.756;11.432;2023-07-31T14:40:06;2.53;;;1.80;;
23179;SDS011;11758;45.756;11.432;2023-07-31T14:42:32;3.13;;;3.03;;